Terminal Aerodrome Forecast
Issued by NWS

Home | Current Version | Previous Version | Text Only | Print | Product List | Glossary On
Versions: 1 2 3 4 5 6 7 8 9 10 11 12 13 14 15 16 17 18 19 20 21 22 23 24 25 26 27 28 29 30 31 32 33 34 35 36 37 38 39 40 41 42 43 44 45 46 47 48 49 50
000
FTUS42 KMFL 101124
TAFTMB
TAF
KTMB 101124Z 1012/1112 VRB04KT P6SM VCSH FEW025 SCT050 OVC250
     FM101600 13006KT P6SM VCTS SCT030CB BKN050 BKN250
     FM102300 VRB04KT P6SM SCT250=

USA.gov is the U.S. government's official web portal to all federal, state and local government web resources and services.